KSBY/SBY METAR and TAF weather

Enter ICAO airport designator
Station Type Date Time Source
KSBY METAR 2021/07/30 23:54 UTC NOAA

KSBY 302354Z 01005KT 10SM CLR 28/17 A2988 RMK AO2 SLP118 T02830172 10333 20283 51013


Station Type Date Time Source
KSBY Decoded METAR 2021/07/30 23:54 UTC NOAA

SALISBURY-WICOMICO CTY REG, MD, United States (KSBY) 38-20N 075-30W 19M
Jul 30, 2021 - 07:54 PM EDT / 2021.07.30 2354 UTC
Wind: from the N (010 degrees) at 6 MPH (5 KT):0
Visibility: 10 mile(s):0
Sky conditions: clear
Temperature: 82.9 F (28.3 C)
Dew Point: 63.0 F (17.2 C)
Relative Humidity: 50%
Pressure (altimeter): 29.88 in. Hg (1011 hPa)
Pressure tendency: 0.04 inches (1.3 hPa) higher than three hours ago
ob: KSBY 302354Z 01005KT 10SM CLR 28/17 A2988 RMK AO2 SLP118 T02830172 10333 20283 51013
cycle: 0

Station Type Date Time Source
KSBY TAF 2021/07/30 18:33 UTC NOAA

TAF KSBY 301730Z 3018/3118 35010KT P6SM SCT045
FM310000 03005KT P6SM FEW050
FM311200 03006KT P6SM BKN100
FM311600 04005KT P6SM SCT100

Example: see airport list